createdAt,value
2023-04-17T00:01:02.470Z,99657.19
2023-04-17T00:03:29.047Z,99653.41
2023-04-17T00:05:55.788Z,99662.63
2023-04-17T00:08:22.534Z,99659.63
2023-04-17T00:10:57.088Z,99656.09
2023-04-17T00:13:32.403Z,99660.41
2023-04-17T00:15:58.925Z,99653.69
2023-04-17T00:18:25.662Z,99649.06
2023-04-17T00:20:52.246Z,99656.41
2023-04-17T00:23:18.876Z,99645.03
2023-04-17T00:25:45.413Z,99642.34
2023-04-17T00:28:11.922Z,99645.03
2023-04-17T00:30:39.909Z,99653.16
2023-04-17T00:33:06.719Z,99645.03
2023-04-17T00:35:33.268Z,99639.91
2023-04-17T00:37:59.841Z,99649.13
2023-04-17T00:40:26.374Z,99644.81
2023-04-17T00:42:52.982Z,99643.72
2023-04-17T00:45:20.230Z,99639.72
2023-04-17T00:47:49.813Z,99645.13
2023-04-17T00:50:16.591Z,99637.31
2023-04-17T00:52:44.906Z,99647.53
2023-04-17T00:55:12.453Z,99645.13
2023-04-17T00:57:39.551Z,99638.91
2023-04-17T01:00:07.583Z,99648.63
2023-04-17T01:02:34.398Z,99643.22
2023-04-17T01:05:02.505Z,99644.81
2023-04-17T01:07:29.921Z,99645.91
2023-04-17T01:09:56.772Z,99643.22
2023-04-17T01:12:25.197Z,99642.09
2023-04-17T01:14:52.085Z,99646.44
2023-04-17T01:17:18.708Z,99644.53
2023-04-17T01:19:45.486Z,99650.75
2023-04-17T01:22:13.873Z,99649.44
2023-04-17T01:24:41.909Z,99645.13
2023-04-17T01:27:08.462Z,99643.53
2023-04-17T01:29:35.376Z,99646.72
2023-04-17T01:32:02.175Z,99651.84
2023-04-17T01:34:28.774Z,99647.53
2023-04-17T01:36:55.570Z,99647.84
2023-04-17T01:39:22.257Z,99650.03
2023-04-17T01:41:50.366Z,99657.34
2023-04-17T01:44:17.462Z,99649.00
2023-04-17T01:46:44.196Z,99648.81
2023-04-17T01:49:11.479Z,99645.59
2023-04-17T01:51:38.356Z,99655.59
2023-04-17T01:54:05.530Z,99642.63
2023-04-17T01:56:32.138Z,99650.75
2023-04-17T01:59:00.016Z,99646.38
2023-04-17T02:01:26.558Z,99649.63
2023-04-17T02:03:53.490Z,99657.41
2023-04-17T02:06:20.153Z,99650.38
2023-04-17T02:08:46.739Z,99653.03
2023-04-17T02:11:13.239Z,99648.13
2023-04-17T02:13:39.919Z,99650.03
2023-04-17T02:16:08.255Z,99651.03
2023-04-17T02:18:34.814Z,99652.66
2023-04-17T02:21:01.527Z,99651.03
2023-04-17T02:23:28.124Z,99655.06
2023-04-17T02:25:54.779Z,99658.59
2023-04-17T02:28:21.398Z,99664.81
2023-04-17T02:30:47.973Z,99655.88
2023-04-17T02:33:15.818Z,99661.81
2023-04-17T02:35:42.321Z,99655.88
2023-04-17T02:38:08.818Z,99648.28
2023-04-17T02:40:35.417Z,99665.63
2023-04-17T02:43:01.947Z,99653.69
2023-04-17T02:45:28.646Z,99655.59
2023-04-17T02:47:55.349Z,99655.06
2023-04-17T02:50:23.476Z,99650.75
2023-04-17T02:52:49.981Z,99655.38
2023-04-17T02:55:16.541Z,99652.94
2023-04-17T02:57:43.329Z,99658.06
2023-04-17T03:00:10.907Z,99649.13
2023-04-17T03:02:37.636Z,99653.75
2023-04-17T03:05:05.019Z,99652.13
2023-04-17T03:07:33.370Z,99654.84
2023-04-17T03:09:59.958Z,99646.72
2023-04-17T03:12:26.635Z,99649.66
2023-04-17T03:14:53.181Z,99651.84
2023-04-17T03:17:19.890Z,99649.13
2023-04-17T03:19:46.530Z,99651.28
2023-04-17T03:22:13.446Z,99649.38
2023-04-17T03:24:41.610Z,99655.88
2023-04-17T03:27:08.283Z,99664.81
2023-04-17T03:29:34.961Z,99661.00
2023-04-17T03:32:01.682Z,99661.59
2023-04-17T03:34:28.240Z,99659.16
2023-04-17T03:36:55.021Z,99664.59
2023-04-17T03:39:21.527Z,99666.81
2023-04-17T03:41:49.471Z,99665.69
2023-04-17T03:44:16.070Z,99671.41
2023-04-17T03:46:42.641Z,99663.88
2023-04-17T03:49:09.349Z,99665.19
2023-04-17T03:51:36.032Z,99668.19
2023-04-17T03:54:02.612Z,99672.81
2023-04-17T03:56:29.179Z,99670.91
2023-04-17T03:58:57.055Z,99673.59
2023-04-17T04:01:23.623Z,99671.19
2023-04-17T04:03:50.364Z,99670.38
2023-04-17T04:06:16.995Z,99676.59
2023-04-17T04:08:43.482Z,99678.50
2023-04-17T04:11:09.966Z,99675.00
2023-04-17T04:13:36.524Z,99680.94
2023-04-17T04:16:04.686Z,99677.41
2023-04-17T04:18:31.232Z,99682.84
2023-04-17T04:20:58.026Z,99679.31
2023-04-17T04:23:24.631Z,99682.53
2023-04-17T04:25:51.251Z,99687.44
2023-04-17T04:28:17.896Z,99678.50
2023-04-17T04:30:44.990Z,99691.75
2023-04-17T04:33:12.899Z,99680.94
2023-04-17T04:35:39.409Z,99696.38
2023-04-17T04:38:06.040Z,99694.75
2023-04-17T04:40:33.250Z,99692.34
2023-04-17T04:42:59.822Z,99693.16
2023-04-17T04:45:26.356Z,99689.63
2023-04-17T04:47:53.166Z,99687.72
2023-04-17T04:50:21.138Z,99694.47
2023-04-17T04:52:47.677Z,99692.06
2023-04-17T04:55:14.266Z,99698.00
2023-04-17T04:57:40.800Z,99694.19
2023-04-17T05:00:08.850Z,99689.56
2023-04-17T05:02:35.584Z,99691.47
2023-04-17T05:05:02.487Z,99702.78
2023-04-17T05:07:30.724Z,99699.59
2023-04-17T05:09:57.263Z,99700.69
2023-04-17T05:12:23.981Z,99709.81
2023-04-17T05:14:50.569Z,99702.78
2023-04-17T05:17:17.143Z,99709.53
2023-04-17T05:19:43.862Z,99704.34
2023-04-17T05:22:10.404Z,99712.19
2023-04-17T05:24:38.329Z,99720.22
2023-04-17T05:27:04.833Z,99713.44
2023-04-17T05:29:31.340Z,99718.25
2023-04-17T05:31:57.928Z,99715.53
2023-04-17T05:34:24.690Z,99713.63
2023-04-17T05:36:51.438Z,99717.66
2023-04-17T05:39:18.027Z,99718.88
2023-04-17T05:41:45.953Z,99711.78
2023-04-17T05:44:12.543Z,99723.16
2023-04-17T05:46:39.131Z,99728.19
2023-04-17T05:49:05.687Z,99719.03
2023-04-17T05:51:32.242Z,99723.06
2023-04-17T05:53:58.821Z,99724.22
2023-04-17T05:56:25.444Z,99726.31
2023-04-17T05:58:53.294Z,99724.25
2023-04-17T06:01:20.158Z,99730.81
2023-04-17T06:03:46.873Z,99726.38
2023-04-17T06:06:13.825Z,99728.22
2023-04-17T06:08:40.434Z,99728.84
2023-04-17T06:11:06.953Z,99730.34
2023-04-17T06:13:33.563Z,99737.28
2023-04-17T06:16:01.491Z,99739.75
2023-04-17T06:18:28.070Z,99741.44
2023-04-17T06:20:54.951Z,99746.22
2023-04-17T06:23:21.531Z,99749.25
2023-04-17T06:25:48.119Z,99756.84
2023-04-17T06:28:14.620Z,99758.34
2023-04-17T06:30:41.238Z,99760.25
2023-04-17T06:33:09.217Z,99762.75
2023-04-17T06:35:35.851Z,99761.66
2023-04-17T06:38:02.402Z,99758.06
2023-04-17T06:40:28.909Z,99764.00
2023-04-17T06:42:55.601Z,99766.28
2023-04-17T06:45:22.233Z,99768.91
2023-04-17T06:47:48.799Z,99775.84
2023-04-17T06:50:16.865Z,99773.94
2023-04-17T06:52:43.482Z,99775.56
2023-04-17T06:55:10.343Z,99777.88
2023-04-17T06:57:36.947Z,99790.84
2023-04-17T07:00:03.952Z,99788.25
2023-04-17T07:02:30.703Z,99786.94
2023-04-17T07:04:57.525Z,99792.75
2023-04-17T07:07:25.690Z,99795.78
2023-04-17T07:09:52.255Z,99792.53
2023-04-17T07:12:18.830Z,99794.94
2023-04-17T07:14:45.348Z,99790.38
2023-04-17T07:17:12.035Z,99801.78
2023-04-17T07:19:38.630Z,99801.72
2023-04-17T07:22:05.175Z,99808.41
2023-04-17T07:24:33.052Z,99805.91
2023-04-17T07:26:59.584Z,99810.84
2023-04-17T07:29:26.192Z,99809.88
2023-04-17T07:31:52.979Z,99817.59
2023-04-17T07:34:19.650Z,99831.56
2023-04-17T07:36:46.133Z,99825.44
2023-04-17T07:39:13.008Z,99834.88
2023-04-17T07:41:41.052Z,99830.94
2023-04-17T07:44:07.636Z,99832.03
2023-04-17T07:46:34.300Z,99836.50
2023-04-17T07:49:00.868Z,99836.88
2023-04-17T07:51:27.520Z,99829.91
2023-04-17T07:53:54.067Z,99839.03
2023-04-17T07:56:20.644Z,99839.84
2023-04-17T07:58:48.606Z,99835.72
2023-04-17T08:01:15.206Z,99840.19
2023-04-17T08:03:42.235Z,99829.28
2023-04-17T08:06:08.969Z,99838.66
2023-04-17T08:08:35.827Z,99840.16
2023-04-17T08:11:02.383Z,99840.63
2023-04-17T08:13:29.863Z,99838.00
2023-04-17T08:15:58.034Z,99840.00
2023-04-17T08:18:24.721Z,99844.31
2023-04-17T08:20:52.836Z,99853.53
2023-04-17T08:23:19.462Z,99848.25
2023-04-17T08:25:46.259Z,99852.28
2023-04-17T08:28:13.073Z,99853.56
2023-04-17T08:30:39.679Z,99856.97
2023-04-17T08:33:07.671Z,99858.06
2023-04-17T08:35:34.384Z,99856.16
2023-04-17T08:38:00.964Z,99867.56
2023-04-17T08:40:27.521Z,99861.41
2023-04-17T08:42:54.290Z,99863.97
2023-04-17T08:45:23.008Z,99873.69
2023-04-17T08:47:49.728Z,99869.00
2023-04-17T08:50:19.732Z,99861.97
2023-04-17T08:52:47.889Z,99869.38
2023-04-17T08:55:15.766Z,99865.53
2023-04-17T08:57:58.705Z,99872.97
2023-04-17T09:00:27.347Z,99867.47
2023-04-17T09:02:55.647Z,99868.50
2023-04-17T09:05:26.802Z,99873.19
2023-04-17T09:08:07.984Z,99866.41
2023-04-17T09:10:35.707Z,99870.19
2023-04-17T09:13:02.543Z,99869.25
2023-04-17T09:15:29.155Z,99858.56
2023-04-17T09:17:55.716Z,99863.06
2023-04-17T09:20:23.701Z,99873.81
2023-04-17T09:22:59.767Z,99873.84
2023-04-17T09:25:26.500Z,99872.38
2023-04-17T09:27:53.072Z,99865.97
2023-04-17T09:30:19.723Z,99875.59
2023-04-17T09:32:46.443Z,99869.84
2023-04-17T09:35:24.905Z,99872.19
2023-04-17T09:37:53.048Z,99873.00
2023-04-17T09:40:21.835Z,99870.84
2023-04-17T09:42:59.442Z,99872.97
2023-04-17T09:45:27.610Z,99872.34
2023-04-17T09:47:54.559Z,99881.84
2023-04-17T09:50:22.052Z,99883.84
2023-04-17T09:52:50.935Z,99880.06
2023-04-17T09:55:19.269Z,99875.59
2023-04-17T09:57:45.882Z,99886.94
2023-04-17T10:00:13.844Z,99879.13
2023-04-17T10:02:42.234Z,99879.69
2023-04-17T10:05:10.751Z,99877.44
2023-04-17T10:07:38.028Z,99874.84
2023-04-17T10:10:07.083Z,99873.91
2023-04-17T10:12:34.906Z,99876.91
2023-04-17T10:15:02.793Z,99872.91
2023-04-17T10:17:30.421Z,99869.47
2023-04-17T10:19:59.793Z,99872.03
2023-04-17T10:22:30.008Z,99863.19
2023-04-17T10:25:20.545Z,99864.69
2023-04-17T10:27:56.000Z,99864.25
2023-04-17T10:30:23.487Z,99857.03
2023-04-17T10:33:22.088Z,99855.59
2023-04-17T10:35:49.226Z,99861.50
2023-04-17T10:38:15.772Z,99860.38
2023-04-17T10:40:44.555Z,99867.31
2023-04-17T10:43:13.055Z,99861.31
2023-04-17T10:45:57.369Z,99856.09
2023-04-17T10:48:28.259Z,99865.31
2023-04-17T10:50:55.048Z,99858.84
2023-04-17T10:53:38.314Z,99852.91
2023-04-17T10:56:07.006Z,99844.09
2023-04-17T10:58:37.689Z,99843.06
2023-04-17T11:01:09.581Z,99839.91
2023-04-17T11:03:36.606Z,99842.59
2023-04-17T11:06:03.974Z,99839.84
2023-04-17T11:08:30.562Z,99841.59
2023-04-17T11:10:57.087Z,99831.91
2023-04-17T11:13:25.033Z,99840.94
2023-04-17T11:15:51.624Z,99839.31
2023-04-17T11:18:20.693Z,99843.09
2023-04-17T11:20:47.639Z,99837.00
2023-04-17T11:23:16.101Z,99832.34
2023-04-17T11:25:43.389Z,99834.91
2023-04-17T11:28:11.598Z,99830.41
2023-04-17T11:30:40.004Z,99837.16
2023-04-17T11:33:08.164Z,99822.34
2023-04-17T11:35:36.297Z,99826.38
2023-04-17T11:38:07.257Z,99827.34
2023-04-17T11:40:34.017Z,99823.94
2023-04-17T11:43:05.878Z,99820.50
2023-04-17T11:45:33.442Z,99825.88
2023-04-17T11:48:01.470Z,99832.28
2023-04-17T11:50:28.951Z,99830.78
2023-04-17T11:52:57.362Z,99833.97
2023-04-17T11:55:23.968Z,99825.72
2023-04-17T11:57:51.762Z,99828.00
2023-04-17T12:00:19.404Z,99822.75
2023-04-17T12:02:46.151Z,99828.47
2023-04-17T12:05:14.694Z,99826.72
2023-04-17T12:07:41.440Z,99829.88
2023-04-17T12:10:09.241Z,99828.09
2023-04-17T12:12:35.808Z,99825.69
2023-04-17T12:15:02.479Z,99823.97
2023-04-17T12:17:29.167Z,99812.78
2023-04-17T12:19:55.686Z,99822.81
2023-04-17T12:22:23.802Z,99816.94
2023-04-17T12:24:50.402Z,99832.00
2023-04-17T12:27:17.048Z,99830.78
2023-04-17T12:29:44.814Z,99833.03
2023-04-17T12:32:11.842Z,99824.22
2023-04-17T12:34:38.519Z,99822.78
2023-04-17T12:37:05.144Z,99828.00
2023-04-17T12:39:33.088Z,99819.94
2023-04-17T12:41:59.823Z,99814.00
2023-04-17T12:44:26.439Z,99816.72
2023-04-17T12:46:53.067Z,99816.69
2023-04-17T12:49:19.681Z,99817.53
2023-04-17T12:51:46.229Z,99822.72
2023-04-17T12:54:13.049Z,99823.31
2023-04-17T12:56:41.307Z,99828.94
2023-04-17T12:59:07.897Z,99823.88
2023-04-17T13:01:34.423Z,99828.25
2023-04-17T13:04:01.231Z,99830.84
2023-04-17T13:06:27.942Z,99815.50
2023-04-17T13:08:54.519Z,99816.91
2023-04-17T13:11:21.057Z,99817.72
2023-04-17T13:13:48.908Z,99815.44
2023-04-17T13:16:15.572Z,99807.34
2023-04-17T13:18:42.158Z,99809.41
2023-04-17T13:21:08.692Z,99810.63
2023-04-17T13:23:35.373Z,99809.97
2023-04-17T13:26:01.917Z,99806.41
2023-04-17T13:28:28.473Z,99810.06
2023-04-17T13:30:56.530Z,99808.38
2023-04-17T13:33:23.287Z,99802.66
2023-04-17T13:35:49.973Z,99798.41
2023-04-17T13:38:16.542Z,99806.38
2023-04-17T13:40:43.216Z,99804.78
2023-04-17T13:43:09.883Z,99806.56
2023-04-17T13:45:36.449Z,99799.00
2023-04-17T13:48:04.431Z,99792.41
2023-04-17T13:50:31.013Z,99785.72
2023-04-17T13:52:57.548Z,99780.84
2023-04-17T13:55:24.124Z,99779.59
2023-04-17T13:57:50.663Z,99784.53
2023-04-17T14:00:17.779Z,99785.94
2023-04-17T14:02:44.520Z,99788.78
2023-04-17T14:05:12.700Z,99786.81
2023-04-17T14:07:39.413Z,99790.44
2023-04-17T14:10:07.498Z,99781.84
2023-04-17T14:12:34.096Z,99781.63
2023-04-17T14:15:00.695Z,99781.06
2023-04-17T14:17:27.334Z,99777.84
2023-04-17T14:19:53.903Z,99776.13
2023-04-17T14:22:21.774Z,99775.94
2023-04-17T14:24:48.272Z,99778.19
2023-04-17T14:27:14.802Z,99776.13
2023-04-17T14:29:41.379Z,99785.91
2023-04-17T14:32:08.056Z,99772.78
2023-04-17T14:34:34.660Z,99778.28
2023-04-17T14:37:01.300Z,99769.16
2023-04-17T14:39:31.352Z,99772.72
2023-04-17T14:41:59.761Z,99768.13
2023-04-17T14:44:28.425Z,99769.72
2023-04-17T14:46:55.253Z,99763.97
2023-04-17T14:49:22.033Z,99761.16
2023-04-17T14:51:49.086Z,99757.09
2023-04-17T14:54:15.799Z,99760.47
2023-04-17T14:56:43.730Z,99766.38
2023-04-17T14:59:10.284Z,99766.81
2023-04-17T15:01:36.932Z,99758.44
2023-04-17T15:04:03.832Z,99759.13
2023-04-17T15:06:30.590Z,99753.13
2023-04-17T15:08:57.294Z,99750.50
2023-04-17T15:11:23.813Z,99758.84
2023-04-17T15:13:51.908Z,99764.66
2023-04-17T15:16:18.506Z,99759.91
2023-04-17T15:18:45.158Z,99756.41
2023-04-17T15:21:11.829Z,99757.81
2023-04-17T15:23:38.414Z,99758.34
2023-04-17T15:26:05.322Z,99764.66
2023-04-17T15:28:31.896Z,99763.34
2023-04-17T15:30:59.802Z,99760.16
2023-04-17T15:33:26.519Z,99761.47
2023-04-17T15:35:54.863Z,99763.81
2023-04-17T15:38:21.437Z,99763.69
2023-04-17T15:40:47.933Z,99763.06
2023-04-17T15:43:14.533Z,99760.22
2023-04-17T15:45:41.150Z,99755.84
2023-04-17T15:48:09.225Z,99764.31
2023-04-17T15:50:35.982Z,99768.03
2023-04-17T15:53:02.586Z,99762.50
2023-04-17T15:55:29.254Z,99768.25
2023-04-17T15:57:56.129Z,99758.06
2023-04-17T16:00:22.739Z,99756.59
2023-04-17T16:02:49.437Z,99756.63
2023-04-17T16:05:18.184Z,99759.56
2023-04-17T16:07:45.148Z,99760.88
2023-04-17T16:10:12.206Z,99767.34
2023-04-17T16:12:40.389Z,99757.47
2023-04-17T16:15:08.787Z,99761.19
2023-04-17T16:17:35.503Z,99756.72
2023-04-17T16:20:03.552Z,99757.88
2023-04-17T16:22:31.729Z,99759.63
2023-04-17T16:24:58.430Z,99756.59
2023-04-17T16:27:26.130Z,99758.97
2023-04-17T16:29:52.846Z,99775.31
2023-04-17T16:32:19.468Z,99772.16
2023-04-17T16:34:46.077Z,99775.75
2023-04-17T16:37:12.756Z,99777.56
2023-04-17T16:39:40.748Z,99770.16
2023-04-17T16:42:07.559Z,99772.69
2023-04-17T16:44:34.238Z,99769.38
2023-04-17T16:47:12.810Z,99772.47
2023-04-17T16:49:40.312Z,99769.81
2023-04-17T16:52:07.081Z,99777.56
2023-04-17T16:54:33.642Z,99779.53
2023-04-17T16:57:01.534Z,99779.13
2023-04-17T16:59:28.064Z,99778.25
2023-04-17T17:01:54.809Z,99781.91
2023-04-17T17:04:21.470Z,99775.78
2023-04-17T17:06:48.096Z,99776.47
2023-04-17T17:09:14.858Z,99779.63
2023-04-17T17:11:41.542Z,99777.38
2023-04-17T17:14:09.448Z,99772.03
2023-04-17T17:16:36.066Z,99780.41
2023-04-17T17:19:02.704Z,99784.66
2023-04-17T17:21:29.451Z,99783.81
2023-04-17T17:23:56.490Z,99781.03
2023-04-17T17:26:23.192Z,99785.22
2023-04-17T17:28:49.876Z,99789.75
2023-04-17T17:31:17.892Z,99789.84
2023-04-17T17:33:44.702Z,99791.38
2023-04-17T17:36:11.288Z,99793.63
2023-04-17T17:38:37.879Z,99790.66
2023-04-17T17:41:04.495Z,99783.84
2023-04-17T17:43:31.019Z,99791.94
2023-04-17T17:45:57.653Z,99779.97
2023-04-17T17:48:25.625Z,99788.38
2023-04-17T17:50:53.872Z,99795.47
2023-04-17T17:53:25.573Z,99793.25
2023-04-17T17:55:53.356Z,99792.25
2023-04-17T17:58:20.718Z,99790.94
2023-04-17T18:00:47.521Z,99792.84
2023-04-17T18:03:14.359Z,99795.38
2023-04-17T18:05:43.252Z,99794.09
2023-04-17T18:08:10.030Z,99790.03
2023-04-17T18:10:36.704Z,99797.03
2023-04-17T18:13:03.245Z,99793.44
2023-04-17T18:15:29.840Z,99791.13
2023-04-17T18:17:56.629Z,99791.88
2023-04-17T18:20:23.479Z,99786.94
2023-04-17T18:22:51.376Z,99795.03
2023-04-17T18:25:18.146Z,99803.94
2023-04-17T18:27:44.687Z,99803.38
2023-04-17T18:30:12.253Z,99798.00
2023-04-17T18:32:40.988Z,99791.09
2023-04-17T18:35:08.405Z,99809.44
2023-04-17T18:37:35.120Z,99798.56
2023-04-17T18:40:05.045Z,99804.22
2023-04-17T18:42:31.722Z,99797.31
2023-04-17T18:44:58.338Z,99809.88
2023-04-17T18:47:28.238Z,99813.03
2023-04-17T18:49:54.850Z,99816.69
2023-04-17T18:52:21.526Z,99822.63
2023-04-17T18:54:48.151Z,99821.53
2023-04-17T18:57:16.119Z,99821.41
2023-04-17T18:59:43.355Z,99820.00
2023-04-17T19:02:10.150Z,99821.44
2023-04-17T19:04:36.916Z,99816.59
2023-04-17T19:07:03.511Z,99816.72
2023-04-17T19:09:30.135Z,99817.41
2023-04-17T19:11:56.760Z,99819.22
2023-04-17T19:14:24.684Z,99821.78
2023-04-17T19:16:51.331Z,99818.09
2023-04-17T19:19:17.930Z,99819.38
2023-04-17T19:21:44.799Z,99820.59
2023-04-17T19:24:13.258Z,99812.34
2023-04-17T19:26:39.990Z,99816.25
2023-04-17T19:29:06.866Z,99810.91
2023-04-17T19:31:35.019Z,99807.19
2023-04-17T19:34:01.611Z,99811.66
2023-04-17T19:36:28.195Z,99812.53
2023-04-17T19:38:55.231Z,99819.66
2023-04-17T19:41:21.784Z,99809.41
2023-04-17T19:43:50.266Z,99815.44
2023-04-17T19:46:17.933Z,99818.81
2023-04-17T19:48:46.575Z,99820.34
2023-04-17T19:51:14.391Z,99820.47
2023-04-17T19:53:42.662Z,99828.94
2023-04-17T19:56:10.613Z,99830.50
2023-04-17T19:58:37.903Z,99823.41
2023-04-17T20:01:05.280Z,99827.09
2023-04-17T20:03:32.706Z,99824.22
2023-04-17T20:06:00.896Z,99824.84
2023-04-17T20:08:29.932Z,99825.75
2023-04-17T20:10:56.491Z,99822.09
2023-04-17T20:13:23.176Z,99824.59
2023-04-17T20:15:56.028Z,99822.78
2023-04-17T20:18:22.617Z,99826.84
2023-04-17T20:20:49.140Z,99825.00
2023-04-17T20:23:17.048Z,99826.41
2023-04-17T20:25:43.760Z,99823.72
2023-04-17T20:28:10.342Z,99832.13
2023-04-17T20:30:37.059Z,99827.34
2023-04-17T20:33:03.871Z,99824.38
2023-04-17T20:35:30.768Z,99817.66
2023-04-17T20:37:57.417Z,99822.84
2023-04-17T20:40:25.557Z,99823.94
2023-04-17T20:42:52.299Z,99822.34
2023-04-17T20:45:18.855Z,99828.06
2023-04-17T20:47:56.476Z,99818.06
2023-04-17T20:50:24.325Z,99820.56
2023-04-17T20:52:51.049Z,99828.94
2023-04-17T20:55:17.669Z,99833.56
2023-04-17T20:57:45.886Z,99830.31
2023-04-17T21:00:13.483Z,99830.59
2023-04-17T21:02:40.233Z,99816.88
2023-04-17T21:05:07.786Z,99827.94
2023-04-17T21:07:34.991Z,99831.47
2023-04-17T21:10:01.856Z,99818.25
2023-04-17T21:12:28.442Z,99829.84
2023-04-17T21:14:56.301Z,99837.66
2023-04-17T21:17:23.307Z,99828.78
2023-04-17T21:19:50.138Z,99833.09
2023-04-17T21:22:16.802Z,99833.38
2023-04-17T21:24:43.443Z,99836.59
2023-04-17T21:27:10.409Z,99837.16
2023-04-17T21:29:37.163Z,99841.22
2023-04-17T21:32:05.555Z,99829.63
2023-04-17T21:34:32.161Z,99839.84
2023-04-17T21:36:59.857Z,99841.22
2023-04-17T21:39:26.350Z,99841.50
2023-04-17T21:41:52.940Z,99827.75
2023-04-17T21:44:19.568Z,99839.34
2023-04-17T21:46:46.378Z,99838.53
2023-04-17T21:49:14.381Z,99842.31
2023-04-17T21:51:40.968Z,99839.84
2023-04-17T21:54:09.158Z,99835.53
2023-04-17T21:56:35.709Z,99836.91
2023-04-17T21:59:02.376Z,99832.88
2023-04-17T22:01:28.982Z,99834.22
2023-04-17T22:03:55.600Z,99843.66
2023-04-17T22:06:23.544Z,99838.53
2023-04-17T22:08:50.053Z,99840.97
2023-04-17T22:11:16.670Z,99837.47
2023-04-17T22:13:43.323Z,99830.75
2023-04-17T22:16:10.064Z,99842.06
2023-04-17T22:18:36.600Z,99839.91
2023-04-17T22:21:03.730Z,99836.13
2023-04-17T22:23:31.628Z,99842.59
2023-04-17T22:25:58.169Z,99840.72
2023-04-17T22:28:24.936Z,99830.44
2023-04-17T22:30:51.599Z,99837.72
2023-04-17T22:33:18.321Z,99843.13
2023-04-17T22:35:44.882Z,99849.00
2023-04-17T22:38:11.619Z,99844.41
2023-04-17T22:40:39.511Z,99842.75
2023-04-17T22:43:06.371Z,99841.63
2023-04-17T22:45:32.863Z,99843.22
2023-04-17T22:47:59.806Z,99843.22
2023-04-17T22:50:26.548Z,99847.00
2023-04-17T22:52:53.377Z,99850.22
2023-04-17T22:55:20.174Z,99853.22
2023-04-17T22:57:48.099Z,99847.34
2023-04-17T23:00:15.598Z,99856.53
2023-04-17T23:02:42.407Z,99853.59
2023-04-17T23:05:09.391Z,99854.16
2023-04-17T23:07:35.985Z,99858.19
2023-04-17T23:10:02.537Z,99857.13
2023-04-17T23:12:29.188Z,99853.84
2023-04-17T23:14:57.613Z,99856.81
2023-04-17T23:17:24.423Z,99858.16
2023-04-17T23:19:51.033Z,99858.38
2023-04-17T23:22:17.645Z,99859.47
2023-04-17T23:24:44.197Z,99855.16
2023-04-17T23:27:10.805Z,99848.94
2023-04-17T23:29:37.338Z,99855.16
2023-04-17T23:32:06.543Z,99859.47
2023-04-17T23:34:33.268Z,99864.63
2023-04-17T23:36:59.820Z,99858.66
2023-04-17T23:39:26.386Z,99862.19
2023-04-17T23:41:53.001Z,99863.03
2023-04-17T23:44:19.565Z,99856.59
2023-04-17T23:46:46.146Z,99852.56
2023-04-17T23:49:14.050Z,99861.75
2023-04-17T23:51:40.766Z,99850.16
2023-04-17T23:54:07.353Z,99856.03
2023-04-17T23:56:33.913Z,99854.69
2023-04-17T23:59:00.493Z,99848.25
